Tompa, Russia
Current Conditions -  °F | °C
As of 10:30 PM on Sunday 23 Nov 2014 (Local Time) from UIUU Reporting Station
Smoke Smoke  
Wind Chill: -8°   Ceiling: Unl
Heat Index: -8°   Visibility: 1.3mi
Dew Point: -11°   Wind: 2mph
Humidity: 84%   Direction: 340°NNW
Pressure: 30.09"   Gusts: NA
Location:  55.13°N, 109.78°E
Report Text: UIUU 231430Z 34001MPS 2100 FU SCT100 M22/M24 Q1019 NOSIG RMKQFE720/0960 26410560
Loading
Personal Weather Stations






























Interactive Weather Map New forecast layout! Learn more

10-Day Weather Forecast

Advertisements
Track Severe Weather on mobile